createdAt,value
2023-03-25T00:00:39.680Z,3.92
2023-03-25T00:03:07.107Z,3.33
2023-03-25T00:05:34.417Z,3.65
2023-03-25T00:08:02.265Z,3.28
2023-03-25T00:10:29.577Z,3.65
2023-03-25T00:12:56.891Z,3.65
2023-03-25T00:15:24.922Z,3.50
2023-03-25T00:20:34.534Z,3.90
2023-03-25T00:23:16.157Z,4.05
2023-03-25T00:25:48.832Z,3.63
2023-03-25T00:28:25.871Z,3.30
2023-03-25T00:31:21.844Z,3.70
2023-03-25T00:33:52.291Z,3.75
2023-03-25T00:36:19.767Z,3.22
2023-03-25T00:38:53.708Z,3.63
2023-03-25T00:41:36.152Z,2.97
2023-03-25T00:44:17.281Z,3.53
2023-03-25T00:49:31.407Z,3.38
2023-03-25T00:52:03.263Z,3.47
2023-03-25T00:54:48.490Z,2.90
2023-03-25T00:57:31.059Z,3.38
2023-03-25T01:02:54.491Z,3.05
2023-03-25T01:05:23.304Z,3.53
2023-03-25T01:07:56.321Z,3.30
2023-03-25T01:10:44.409Z,3.20
2023-03-25T01:13:16.645Z,4.13
2023-03-25T01:15:46.491Z,3.15
2023-03-25T01:18:26.393Z,3.58
2023-03-25T01:21:01.526Z,3.58
2023-03-25T01:23:28.781Z,3.83
2023-03-25T01:25:56.056Z,3.50
2023-03-25T01:28:23.654Z,3.33
2023-03-25T01:30:56.263Z,4.10
2023-03-25T01:36:13.737Z,3.85
2023-03-25T01:38:51.945Z,3.42
2023-03-25T01:41:42.689Z,3.45
2023-03-25T01:44:41.851Z,3.25
2023-03-25T01:50:17.152Z,3.00
2023-03-25T01:53:21.790Z,3.83
2023-03-25T01:58:42.128Z,3.28
2023-03-25T02:01:28.527Z,3.20
2023-03-25T02:04:10.900Z,3.45
2023-03-25T02:06:55.528Z,3.20
2023-03-25T02:09:41.190Z,3.22
2023-03-25T02:12:16.272Z,3.38
2023-03-25T02:14:53.110Z,3.38
2023-03-25T02:18:05.543Z,3.83
2023-03-25T02:21:15.077Z,3.25
2023-03-25T02:24:33.320Z,3.97
2023-03-25T02:27:47.981Z,3.58
2023-03-25T02:33:19.908Z,4.45
2023-03-25T02:36:37.540Z,3.20
2023-03-25T02:40:01.118Z,4.18
2023-03-25T02:42:56.660Z,3.40
2023-03-25T02:46:03.151Z,4.32
2023-03-25T02:48:42.898Z,3.63
2023-03-25T02:51:17.974Z,4.45
2023-03-25T02:53:46.993Z,4.50
2023-03-25T02:56:17.100Z,3.83
2023-03-25T02:58:46.122Z,4.15
2023-03-25T03:01:15.528Z,4.20
2023-03-25T03:03:45.354Z,4.15
2023-03-25T03:06:18.740Z,4.85
2023-03-25T03:09:05.627Z,3.72
2023-03-25T03:12:02.089Z,5.03
2023-03-25T03:18:07.600Z,4.60
2023-03-25T03:21:24.236Z,4.95
2023-03-25T03:24:56.448Z,4.38
2023-03-25T03:28:07.637Z,4.72
2023-03-25T03:31:11.474Z,4.65
2023-03-25T03:36:30.373Z,4.13
2023-03-25T03:39:09.722Z,4.57
2023-03-25T03:41:39.926Z,4.93
2023-03-25T03:44:19.614Z,5.65
2023-03-25T03:47:16.852Z,4.97
2023-03-25T03:49:49.142Z,4.80
2023-03-25T03:52:26.987Z,5.40
2023-03-25T03:55:30.542Z,5.30
2023-03-25T04:01:20.187Z,4.88
2023-03-25T04:03:57.767Z,4.50
2023-03-25T04:07:05.106Z,6.03
2023-03-25T04:13:02.628Z,4.63
2023-03-25T04:15:37.712Z,4.87
2023-03-25T04:18:17.459Z,3.90
2023-03-25T04:20:50.908Z,3.85
2023-03-25T04:23:23.966Z,2.63
2023-03-25T04:25:54.568Z,2.30
2023-03-25T04:28:33.618Z,3.95
2023-03-25T04:31:16.686Z,3.78
2023-03-25T04:36:38.828Z,5.23
2023-03-25T04:39:07.480Z,5.03
2023-03-25T04:41:35.303Z,4.65
2023-03-25T04:44:02.606Z,5.47
2023-03-25T04:46:34.355Z,4.55
2023-03-25T04:49:03.462Z,4.40
2023-03-25T04:51:30.797Z,4.72
2023-03-25T04:53:58.187Z,4.95
2023-03-25T04:56:25.597Z,5.38
2023-03-25T04:58:53.483Z,4.88
2023-03-25T05:01:30.625Z,4.78
2023-03-25T05:04:08.685Z,5.30
2023-03-25T05:06:47.399Z,4.78
2023-03-25T05:09:17.170Z,4.72
2023-03-25T05:11:45.251Z,5.55
2023-03-25T05:14:14.844Z,5.28
2023-03-25T05:16:42.333Z,4.97
2023-03-25T05:19:09.651Z,5.35
2023-03-25T05:21:39.603Z,5.20
2023-03-25T05:24:11.540Z,5.28
2023-03-25T05:26:40.178Z,5.17
2023-03-25T05:29:14.360Z,4.30
2023-03-25T05:31:43.058Z,5.13
2023-03-25T05:34:11.415Z,5.05
2023-03-25T05:36:40.042Z,4.53
2023-03-25T05:39:08.562Z,4.22
2023-03-25T05:41:42.539Z,4.00
2023-03-25T05:44:14.803Z,4.95
2023-03-25T05:46:42.695Z,4.85
2023-03-25T05:49:10.043Z,4.65
2023-03-25T05:51:37.823Z,4.38
2023-03-25T05:54:11.448Z,5.03
2023-03-25T05:56:39.617Z,4.72
2023-03-25T05:59:08.418Z,4.85
2023-03-25T06:01:38.257Z,5.05
2023-03-25T06:04:10.259Z,4.78
2023-03-25T06:06:39.020Z,4.82
2023-03-25T06:09:07.318Z,5.15
2023-03-25T06:11:38.734Z,4.35
2023-03-25T06:14:09.857Z,4.32
2023-03-25T06:16:39.755Z,4.32
2023-03-25T06:19:09.663Z,4.13
2023-03-25T06:21:37.100Z,3.97
2023-03-25T06:24:06.603Z,4.82
2023-03-25T06:26:34.108Z,4.13
2023-03-25T06:29:03.576Z,4.22
2023-03-25T06:31:39.157Z,4.50
2023-03-25T06:34:09.258Z,4.22
2023-03-25T06:36:40.561Z,4.05
2023-03-25T06:39:22.832Z,5.00
2023-03-25T06:41:53.631Z,4.60
2023-03-25T06:44:24.136Z,4.40
2023-03-25T06:46:54.587Z,4.07
2023-03-25T06:49:22.230Z,5.43
2023-03-25T06:51:49.653Z,4.53
2023-03-25T06:54:19.138Z,4.65
2023-03-25T06:56:46.531Z,5.10
2023-03-25T06:59:14.052Z,4.55
2023-03-25T07:01:43.352Z,5.53
2023-03-25T07:04:10.815Z,5.43
2023-03-25T07:06:38.910Z,5.57
2023-03-25T07:09:06.342Z,5.38
2023-03-25T07:11:35.722Z,4.55
2023-03-25T07:14:09.715Z,5.35
2023-03-25T07:16:39.627Z,5.38
2023-03-25T07:19:07.102Z,4.78
2023-03-25T07:21:34.470Z,5.70
2023-03-25T07:24:01.863Z,5.40
2023-03-25T07:26:29.186Z,4.85
2023-03-25T07:28:56.502Z,4.90
2023-03-25T07:31:23.874Z,5.43
2023-03-25T07:33:51.607Z,5.68
2023-03-25T07:36:19.018Z,5.57
2023-03-25T07:38:46.568Z,5.63
2023-03-25T07:41:14.611Z,5.47
2023-03-25T07:43:43.272Z,4.90
2023-03-25T07:46:10.712Z,6.00
2023-03-25T07:48:38.494Z,5.88
2023-03-25T07:51:06.478Z,7.25
2023-03-25T07:53:33.976Z,5.15
2023-03-25T07:56:01.364Z,5.57
2023-03-25T07:58:30.229Z,5.93
2023-03-25T08:00:59.944Z,5.70
2023-03-25T08:03:28.178Z,6.57
2023-03-25T08:05:56.161Z,5.00
2023-03-25T08:08:24.839Z,5.90
2023-03-25T08:10:52.761Z,5.80
2023-03-25T08:13:20.239Z,6.43
2023-03-25T08:15:47.635Z,6.45
2023-03-25T08:18:15.714Z,6.53
2023-03-25T08:20:43.132Z,6.68
2023-03-25T08:23:11.089Z,7.22
2023-03-25T08:25:40.721Z,6.25
2023-03-25T08:28:10.418Z,6.90
2023-03-25T08:30:40.746Z,6.35
2023-03-25T08:33:10.183Z,6.43
2023-03-25T08:35:39.321Z,7.70
2023-03-25T08:40:52.035Z,6.95
2023-03-25T08:43:19.807Z,5.88
2023-03-25T08:45:47.164Z,6.22
2023-03-25T08:48:14.533Z,7.28
2023-03-25T08:50:41.872Z,5.68
2023-03-25T08:53:09.312Z,7.53
2023-03-25T08:55:37.566Z,6.90
2023-03-25T08:58:06.241Z,6.55
2023-03-25T09:00:35.464Z,7.57
2023-03-25T09:03:04.038Z,7.68
2023-03-25T09:05:31.682Z,7.15
2023-03-25T09:07:59.012Z,6.70
2023-03-25T09:10:27.145Z,6.63
2023-03-25T09:12:54.503Z,7.43
2023-03-25T09:15:21.859Z,6.45
2023-03-25T09:17:49.273Z,6.70
2023-03-25T09:20:18.779Z,7.75
2023-03-25T09:22:46.320Z,6.85
2023-03-25T09:25:14.091Z,6.97
2023-03-25T09:27:41.612Z,8.05
2023-03-25T09:30:10.141Z,6.95
2023-03-25T09:32:37.546Z,7.15
2023-03-25T09:35:05.457Z,6.93
2023-03-25T09:37:34.297Z,7.00
2023-03-25T09:40:01.983Z,6.53
2023-03-25T09:42:53.270Z,6.65
2023-03-25T09:45:42.312Z,6.13
2023-03-25T09:51:03.389Z,7.63
2023-03-25T09:53:42.042Z,6.32
2023-03-25T09:56:14.534Z,7.03
2023-03-25T09:58:43.609Z,6.72
2023-03-25T10:01:33.243Z,6.32
2023-03-25T10:04:34.689Z,5.90
2023-03-25T10:07:10.862Z,6.32
2023-03-25T10:10:01.512Z,5.80
2023-03-25T10:13:07.382Z,7.03
2023-03-25T10:15:37.810Z,7.13
2023-03-25T10:18:07.967Z,6.93
2023-03-25T10:21:01.603Z,6.95
2023-03-25T10:23:38.602Z,5.80
2023-03-25T10:26:28.828Z,5.80
2023-03-25T10:29:05.329Z,6.50
2023-03-25T10:31:36.889Z,5.60
2023-03-25T10:34:14.025Z,6.25
2023-03-25T10:36:58.328Z,6.03
2023-03-25T10:39:34.262Z,6.40
2023-03-25T10:42:14.476Z,5.93
2023-03-25T10:44:41.915Z,6.57
2023-03-25T10:47:16.969Z,5.55
2023-03-25T10:49:46.660Z,5.80
2023-03-25T10:52:16.210Z,5.82
2023-03-25T10:54:51.434Z,5.68
2023-03-25T10:57:26.672Z,5.47
2023-03-25T11:00:06.728Z,5.88
2023-03-25T11:02:34.638Z,5.72
2023-03-25T11:05:06.613Z,7.05
2023-03-25T11:07:36.668Z,5.32
2023-03-25T11:10:29.071Z,5.78
2023-03-25T11:12:58.785Z,5.13
2023-03-25T11:15:31.464Z,5.72
2023-03-25T11:18:22.617Z,5.60
2023-03-25T11:20:52.479Z,5.82
2023-03-25T11:23:25.378Z,5.50
2023-03-25T11:28:41.828Z,6.13
2023-03-25T11:31:18.783Z,5.70
2023-03-25T11:34:02.540Z,5.57
2023-03-25T11:36:32.971Z,6.43
2023-03-25T11:39:06.576Z,6.38
2023-03-25T11:41:37.906Z,5.60
2023-03-25T11:47:09.896Z,5.47
2023-03-25T11:49:51.789Z,5.13
2023-03-25T11:52:28.499Z,5.28
2023-03-25T11:57:57.886Z,5.50
2023-03-25T12:03:47.179Z,5.90
2023-03-25T12:07:04.846Z,5.72
2023-03-25T12:09:33.178Z,6.00
2023-03-25T12:12:32.557Z,6.00
2023-03-25T12:15:09.178Z,4.82
2023-03-25T12:17:48.369Z,5.13
2023-03-25T12:20:45.982Z,5.32
2023-03-25T12:23:33.544Z,4.88
2023-03-25T12:26:11.706Z,4.90
2023-03-25T12:29:11.843Z,4.80
2023-03-25T12:32:01.474Z,4.38
2023-03-25T12:34:49.346Z,4.45
2023-03-25T12:37:52.861Z,4.13
2023-03-25T12:43:16.517Z,4.40
2023-03-25T12:45:50.248Z,3.97
2023-03-25T12:48:58.848Z,4.70
2023-03-25T12:52:04.334Z,4.32
2023-03-25T12:54:50.319Z,4.60
2023-03-25T12:57:43.990Z,4.03
2023-03-25T13:00:29.357Z,4.88
2023-03-25T13:03:17.917Z,4.53
2023-03-25T13:06:08.183Z,4.60
2023-03-25T13:08:42.338Z,4.53
2023-03-25T13:11:43.064Z,4.30
2023-03-25T13:14:36.197Z,5.07
2023-03-25T13:17:11.576Z,5.03
2023-03-25T13:19:41.225Z,5.43
2023-03-25T13:22:33.710Z,5.00
2023-03-25T13:25:03.379Z,4.67
2023-03-25T13:27:37.235Z,3.80
2023-03-25T13:30:06.616Z,3.90
2023-03-25T13:32:50.124Z,3.30
2023-03-25T13:35:52.813Z,4.47
2023-03-25T13:38:43.663Z,4.63
2023-03-25T13:41:31.471Z,4.88
2023-03-25T13:44:05.654Z,5.57
2023-03-25T13:46:45.154Z,4.80
2023-03-25T13:49:31.015Z,4.80
2023-03-25T13:51:59.573Z,4.45
2023-03-25T13:54:54.341Z,5.00
2023-03-25T13:57:53.986Z,4.47
2023-03-25T14:00:45.932Z,4.18
2023-03-25T14:03:39.729Z,3.92
2023-03-25T14:06:20.444Z,4.80
2023-03-25T14:08:56.775Z,9.52
2023-03-25T14:11:44.792Z,6.15
2023-03-25T14:14:17.662Z,4.22
2023-03-25T14:19:20.441Z,3.85
2023-03-25T14:21:52.082Z,4.40
2023-03-25T14:24:31.892Z,3.88
2023-03-25T14:27:07.858Z,3.65
2023-03-25T14:29:41.262Z,4.25
2023-03-25T14:32:20.580Z,4.43
2023-03-25T14:34:52.117Z,4.88
2023-03-25T14:37:26.085Z,4.53
2023-03-25T14:39:57.209Z,4.90
2023-03-25T14:42:29.098Z,5.32
2023-03-25T14:45:35.702Z,5.55
2023-03-25T14:48:19.354Z,5.85
2023-03-25T14:51:10.933Z,7.82
2023-03-25T14:53:39.488Z,9.48
2023-03-25T14:56:08.657Z,10.90
2023-03-25T14:58:39.122Z,5.90
2023-03-25T15:01:11.481Z,5.13
2023-03-25T15:03:44.011Z,5.40
2023-03-25T15:06:18.658Z,5.30
2023-03-25T15:08:58.387Z,6.82
2023-03-25T15:11:52.405Z,10.15
2023-03-25T15:14:32.953Z,7.03
2023-03-25T15:17:07.590Z,5.80
2023-03-25T15:20:16.448Z,5.72
2023-03-25T15:22:43.801Z,5.22
2023-03-25T15:25:18.623Z,5.40
2023-03-25T15:28:16.674Z,5.93
2023-03-25T15:30:56.930Z,6.07
2023-03-25T15:33:45.294Z,6.53
2023-03-25T15:36:39.184Z,5.95
2023-03-25T15:39:25.303Z,5.53
2023-03-25T15:42:04.681Z,5.97
2023-03-25T15:44:53.260Z,5.68
2023-03-25T15:47:48.665Z,5.55
2023-03-25T15:50:28.033Z,5.38
2023-03-25T15:53:41.856Z,5.70
2023-03-25T15:56:26.141Z,10.20
2023-03-25T16:01:39.687Z,6.60
2023-03-25T16:04:11.921Z,5.43
2023-03-25T16:06:43.041Z,5.30
2023-03-25T16:11:52.644Z,6.43
2023-03-25T16:14:22.720Z,5.38
2023-03-25T16:16:58.158Z,5.32
2023-03-25T16:19:42.944Z,6.25
2023-03-25T16:22:27.461Z,6.10
2023-03-25T16:24:57.368Z,5.82
2023-03-25T16:27:29.407Z,6.50
2023-03-25T16:29:57.426Z,5.90
2023-03-25T16:32:27.293Z,6.75
2023-03-25T16:34:54.782Z,6.70
2023-03-25T16:37:22.736Z,5.18
2023-03-25T16:39:56.747Z,5.75
2023-03-25T16:42:35.476Z,5.63
2023-03-25T16:45:06.017Z,6.35
2023-03-25T16:47:33.979Z,5.50
2023-03-25T16:50:05.513Z,7.30
2023-03-25T16:52:34.510Z,6.43
2023-03-25T16:55:01.829Z,6.68
2023-03-25T16:57:32.758Z,6.18
2023-03-25T17:00:17.456Z,7.10
2023-03-25T17:02:48.416Z,5.93
2023-03-25T17:05:22.231Z,6.28
2023-03-25T17:08:29.459Z,7.68
2023-03-25T17:11:03.534Z,6.78
2023-03-25T17:13:41.075Z,6.65
2023-03-25T17:16:09.257Z,6.55
2023-03-25T17:18:38.152Z,6.85
2023-03-25T17:21:14.624Z,7.00
2023-03-25T17:23:42.392Z,6.65
2023-03-25T17:26:15.403Z,6.50
2023-03-25T17:28:46.039Z,7.15
2023-03-25T17:31:38.724Z,6.95
2023-03-25T17:34:19.317Z,6.93
2023-03-25T17:36:48.621Z,7.60
2023-03-25T17:39:19.774Z,7.75
2023-03-25T17:41:47.552Z,7.55
2023-03-25T17:44:16.741Z,7.50
2023-03-25T17:46:46.033Z,7.50
2023-03-25T17:49:18.520Z,7.43
2023-03-25T17:51:46.911Z,7.93
2023-03-25T17:54:14.743Z,6.95
2023-03-25T17:56:42.538Z,7.70
2023-03-25T17:59:26.050Z,7.93
2023-03-25T18:01:53.949Z,7.65
2023-03-25T18:04:22.210Z,8.10
2023-03-25T18:06:49.842Z,6.60
2023-03-25T18:09:24.829Z,7.53
2023-03-25T18:11:55.810Z,7.82
2023-03-25T18:14:24.200Z,6.97
2023-03-25T18:16:52.142Z,7.68
2023-03-25T18:19:22.740Z,9.05
2023-03-25T18:21:50.279Z,7.80
2023-03-25T18:24:21.254Z,9.20
2023-03-25T18:26:48.956Z,8.13
2023-03-25T18:29:23.130Z,7.15
2023-03-25T18:31:51.481Z,6.80
2023-03-25T18:34:23.372Z,6.85
2023-03-25T18:36:52.505Z,6.13
2023-03-25T18:39:23.044Z,6.15
2023-03-25T18:41:50.964Z,7.80
2023-03-25T18:44:19.007Z,8.07
2023-03-25T18:46:46.814Z,7.47
2023-03-25T18:49:16.844Z,6.53
2023-03-25T18:51:44.775Z,6.07
2023-03-25T18:54:12.140Z,6.97
2023-03-25T18:56:41.648Z,5.82
2023-03-25T18:59:10.565Z,5.05
2023-03-25T19:01:38.008Z,5.22
2023-03-25T19:04:05.968Z,4.00
2023-03-25T19:06:34.133Z,3.85
2023-03-25T19:09:02.636Z,3.50
2023-03-25T19:11:33.871Z,3.67
2023-03-25T19:14:03.127Z,4.28
2023-03-25T19:16:30.648Z,3.42
2023-03-25T19:19:00.372Z,4.05
2023-03-25T19:21:27.774Z,3.92
2023-03-25T19:23:55.304Z,4.78
2023-03-25T19:26:22.597Z,5.03
2023-03-25T19:28:52.179Z,4.95
2023-03-25T19:31:21.907Z,5.35
2023-03-25T19:33:56.926Z,6.22
2023-03-25T19:36:25.868Z,6.28
2023-03-25T19:38:55.025Z,7.05
2023-03-25T19:41:24.122Z,7.63
2023-03-25T19:43:51.396Z,7.78
2023-03-25T19:46:19.591Z,6.20
2023-03-25T19:48:47.536Z,7.40
2023-03-25T19:51:14.828Z,7.07
2023-03-25T19:53:42.311Z,6.78
2023-03-25T19:56:14.506Z,7.75
2023-03-25T19:58:41.968Z,7.30
2023-03-25T20:01:10.254Z,7.45
2023-03-25T20:03:38.579Z,7.25
2023-03-25T20:06:06.734Z,7.07
2023-03-25T20:08:36.708Z,8.05
2023-03-25T20:11:12.982Z,7.63
2023-03-25T20:13:40.427Z,6.65
2023-03-25T20:16:08.671Z,8.25
2023-03-25T20:18:49.199Z,8.80
2023-03-25T20:21:18.505Z,8.55
2023-03-25T20:23:46.679Z,9.38
2023-03-25T20:26:15.434Z,9.80
2023-03-25T20:28:42.897Z,10.55
2023-03-25T20:31:22.026Z,9.38
2023-03-25T20:33:51.119Z,10.10
2023-03-25T20:36:21.609Z,9.95
2023-03-25T20:38:57.061Z,11.07
2023-03-25T20:41:26.453Z,10.65
2023-03-25T20:43:53.853Z,9.32
2023-03-25T20:46:23.942Z,10.38
2023-03-25T20:48:51.980Z,9.98
2023-03-25T20:51:19.309Z,7.90
2023-03-25T20:53:47.170Z,8.75
2023-03-25T20:56:14.692Z,7.40
2023-03-25T20:58:43.747Z,7.55
2023-03-25T21:01:11.900Z,6.45
2023-03-25T21:03:39.383Z,5.03
2023-03-25T21:06:20.584Z,4.78
2023-03-25T21:08:51.562Z,4.70
2023-03-25T21:11:18.884Z,3.53
2023-03-25T21:13:46.559Z,3.88
2023-03-25T21:16:18.151Z,3.63
2023-03-25T21:18:48.735Z,3.45
2023-03-25T21:21:19.928Z,3.05
2023-03-25T21:23:48.877Z,3.22
2023-03-25T21:26:17.550Z,3.70
2023-03-25T21:28:45.168Z,3.70
2023-03-25T21:31:17.189Z,3.70
2023-03-25T21:33:50.041Z,4.07
2023-03-25T21:36:49.079Z,3.35
2023-03-25T21:39:17.375Z,2.88
2023-03-25T21:41:44.734Z,3.50
2023-03-25T21:44:15.974Z,3.60
2023-03-25T21:46:43.801Z,3.35
2023-03-25T21:49:13.937Z,3.28
2023-03-25T21:51:42.969Z,3.30
2023-03-25T21:54:11.514Z,3.60
2023-03-25T21:56:40.109Z,4.10
2023-03-25T21:59:08.229Z,3.72
2023-03-25T22:01:36.020Z,5.05
2023-03-25T22:04:03.795Z,4.20
2023-03-25T22:06:35.538Z,5.43
2023-03-25T22:09:06.287Z,4.63
2023-03-25T22:11:35.743Z,5.38
2023-03-25T22:14:07.376Z,5.57
2023-03-25T22:16:35.265Z,4.95
2023-03-25T22:19:02.868Z,4.97
2023-03-25T22:21:37.172Z,5.55
2023-03-25T22:24:06.413Z,6.40
2023-03-25T22:26:35.106Z,6.22
2023-03-25T22:29:04.432Z,6.63
2023-03-25T22:31:33.535Z,6.38
2023-03-25T22:34:04.254Z,6.22
2023-03-25T22:36:33.682Z,7.10
2023-03-25T22:39:02.876Z,7.57
2023-03-25T22:41:30.489Z,8.77
2023-03-25T22:43:58.487Z,8.45
2023-03-25T22:46:25.914Z,7.22
2023-03-25T22:48:53.258Z,9.07
2023-03-25T22:51:21.498Z,8.65
2023-03-25T22:53:49.067Z,8.82
2023-03-25T22:56:16.476Z,9.20
2023-03-25T22:58:44.068Z,9.73
2023-03-25T23:01:22.610Z,8.48
2023-03-25T23:03:50.536Z,9.38
2023-03-25T23:06:20.817Z,10.48
2023-03-25T23:08:48.378Z,10.75
2023-03-25T23:11:21.339Z,11.98
2023-03-25T23:16:21.052Z,10.48
2023-03-25T23:18:48.863Z,11.07
2023-03-25T23:21:19.776Z,11.35
2023-03-25T23:23:52.745Z,11.88
2023-03-25T23:26:36.558Z,12.73
2023-03-25T23:31:36.696Z,10.88
2023-03-25T23:34:06.495Z,11.70
2023-03-25T23:36:36.287Z,11.02
2023-03-25T23:39:07.571Z,12.07
2023-03-25T23:41:35.235Z,11.95
2023-03-25T23:44:03.633Z,12.30
2023-03-25T23:46:31.515Z,11.07
2023-03-25T23:49:05.688Z,12.15
2023-03-25T23:51:39.254Z,10.85
2023-03-25T23:54:09.813Z,12.55
2023-03-25T23:56:37.576Z,11.13
2023-03-25T23:59:07.108Z,12.00
